Time;durP1;ratioP1;P1;durP2;ratioP2;P2;SDS_P1;SDS_P2;PMS_P1;PMS_P2;Temp;Humidity;BMP_temperature;BMP_pressure;BME280_temperature;BME280_humidity;BME280_pressure;Samples;Min_cycle;Max_cycle;Signal;HPM_P1;HPM_P2
2022/04/15 00:02:25;;;;;;;28.77;20.57;;;;;;;;;;10456619;28;20422;-89
2022/04/15 00:07:29;;;;;;;28.55;20.55;;;;;;;;;;10444374;28;20412;-91
2022/04/15 00:12:31;;;;;;;31.10;21.33;;;;;;;;;;10444167;28;20434;-91
2022/04/15 00:17:33;;;;;;;31.50;21.92;;;;;;;;;;10443006;28;20483;-90
2022/04/15 00:22:36;;;;;;;32.90;22.92;;;;;;;;;;10443489;28;20435;-90
2022/04/15 00:27:39;;;;;;;31.20;22.63;;;;;;;;;;10442440;28;20510;-90
2022/04/15 00:32:41;;;;;;;30.33;22.02;;;;;;;;;;10442732;28;20556;-91
2022/04/15 00:37:44;;;;;;;32.53;23.42;;;;;;;;;;10427101;28;20492;-90
2022/04/15 00:42:46;;;;;;;33.08;24.33;;;;;;;;;;10443368;28;20486;-90
2022/04/15 00:47:51;;;;;;;33.70;24.00;;;;;;;;;;10442713;28;20420;-89
2022/04/15 00:52:58;;;;;;;32.22;24.52;;;;;;;;;;10442041;28;20411;-91
2022/04/15 00:58:01;;;;;;;31.90;23.70;;;;;;;;;;10425195;28;20411;-89
2022/04/15 01:03:05;;;;;;;34.60;24.30;;;;;;;;;;10442648;28;20458;-89
2022/04/15 01:08:11;;;;;;;33.25;24.05;;;;;;;;;;10442419;28;20503;-88
2022/04/15 01:13:14;;;;;;;33.53;24.77;;;;;;;;;;10425018;28;20400;-90
2022/04/15 01:18:16;;;;;;;36.47;25.60;;;;;;;;;;10424049;28;20403;-90
2022/04/15 01:23:20;;;;;;;32.97;24.77;;;;;;;;;;10442619;28;20408;-90
2022/04/15 01:28:22;;;;;;;33.97;25.07;;;;;;;;;;10446393;28;20418;-91
2022/04/15 01:33:24;;;;;;;38.08;25.80;;;;;;;;;;10450622;28;20407;-90
2022/04/15 01:38:28;;;;;;;34.67;25.70;;;;;;;;;;10431303;28;20985;-91
2022/04/15 01:43:30;;;;;;;34.55;26.10;;;;;;;;;;10449900;28;20486;-89
2022/04/15 01:48:32;;;;;;;34.88;26.40;;;;;;;;;;10431394;28;20465;-90
2022/04/15 01:53:35;;;;;;;36.28;26.92;;;;;;;;;;10449719;28;20410;-91
2022/04/15 01:58:37;;;;;;;36.67;26.98;;;;;;;;;;10449933;28;20487;-91
2022/04/15 02:03:39;;;;;;;35.92;28.55;;;;;;;;;;10439304;28;20427;-90
2022/04/15 02:08:42;;;;;;;38.72;29.08;;;;;;;;;;10449649;28;20462;-90
2022/04/15 02:13:44;;;;;;;38.50;28.33;;;;;;;;;;10449833;28;20438;-90
2022/04/15 02:18:46;;;;;;;36.90;27.87;;;;;;;;;;10449514;28;20840;-90
2022/04/15 02:23:49;;;;;;;38.10;29.23;;;;;;;;;;10449756;28;20840;-90
2022/04/15 02:28:51;;;;;;;39.70;30.20;;;;;;;;;;10449629;28;20566;-89
2022/04/15 02:33:53;;;;;;;37.63;28.90;;;;;;;;;;10448744;28;20831;-90
2022/04/15 02:38:58;;;;;;;40.67;29.85;;;;;;;;;;10448304;28;20893;-90
2022/04/15 02:44:00;;;;;;;38.83;29.27;;;;;;;;;;10449277;28;20744;-89
2022/04/15 02:49:03;;;;;;;38.78;29.83;;;;;;;;;;10450195;28;20425;-91
2022/04/15 02:54:06;;;;;;;37.92;29.40;;;;;;;;;;10451295;28;20736;-91
2022/04/15 02:59:08;;;;;;;39.85;31.30;;;;;;;;;;10451762;28;20507;-91
2022/04/15 03:04:10;;;;;;;36.33;29.08;;;;;;;;;;10451498;28;20407;-91
2022/04/15 03:09:13;;;;;;;42.03;30.97;;;;;;;;;;10451691;28;20531;-91
2022/04/15 03:14:17;;;;;;;42.60;31.70;;;;;;;;;;10453748;28;20442;-92
2022/04/15 03:19:19;;;;;;;39.13;30.37;;;;;;;;;;10467379;28;20982;-91
2022/04/15 03:24:23;;;;;;;38.90;30.52;;;;;;;;;;10447242;28;20990;-91
2022/04/15 03:29:25;;;;;;;42.67;30.70;;;;;;;;;;10448134;28;20474;-91
2022/04/15 03:34:26;;;;;;;40.80;31.35;;;;;;;;;;10448654;28;20408;-90
2022/04/15 03:39:30;;;;;;;41.20;31.67;;;;;;;;;;10448838;28;20427;-91
2022/04/15 03:44:32;;;;;;;43.00;32.40;;;;;;;;;;10449186;28;20435;-91
2022/04/15 03:49:34;;;;;;;41.65;31.40;;;;;;;;;;10448029;28;20483;-90
2022/04/15 03:54:40;;;;;;;40.55;32.42;;;;;;;;;;10449068;28;20486;-91
2022/04/15 03:59:42;;;;;;;42.20;31.13;;;;;;;;;;10448570;28;20431;-90
2022/04/15 04:04:43;;;;;;;38.63;31.10;;;;;;;;;;10424892;28;20827;-91
2022/04/15 04:09:47;;;;;;;42.75;32.10;;;;;;;;;;10445211;28;20546;-90
2022/04/15 04:14:49;;;;;;;42.10;31.45;;;;;;;;;;10405193;28;20494;-91
2022/04/15 04:19:51;;;;;;;44.27;32.90;;;;;;;;;;10446188;28;20411;-91
2022/04/15 04:24:54;;;;;;;47.38;33.88;;;;;;;;;;10446210;28;20907;-91
2022/04/15 04:29:56;;;;;;;47.80;34.27;;;;;;;;;;10446585;28;20427;-90
2022/04/15 04:34:58;;;;;;;45.88;33.72;;;;;;;;;;10445774;28;20921;-91
2022/04/15 04:40:01;;;;;;;44.75;33.20;;;;;;;;;;10445452;28;20511;-91
2022/04/15 04:45:04;;;;;;;49.05;35.13;;;;;;;;;;10445727;28;20919;-90
2022/04/15 04:50:08;;;;;;;48.50;34.37;;;;;;;;;;10444886;28;20860;-91
2022/04/15 04:55:12;;;;;;;46.50;32.53;;;;;;;;;;10444541;28;20404;-90
2022/04/15 05:00:15;;;;;;;51.88;33.03;;;;;;;;;;10445463;28;20531;-91
2022/04/15 05:05:17;;;;;;;45.97;33.00;;;;;;;;;;10440944;28;20497;-91
2022/04/15 05:10:22;;;;;;;47.80;33.75;;;;;;;;;;10445637;28;20514;-90
2022/04/15 05:15:24;;;;;;;40.77;29.73;;;;;;;;;;10438645;28;20416;-91
2022/04/15 05:20:26;;;;;;;39.40;29.50;;;;;;;;;;10439278;28;20914;-91
2022/04/15 05:25:29;;;;;;;42.88;30.05;;;;;;;;;;10406223;28;20440;-90
2022/04/15 05:30:31;;;;;;;41.45;29.80;;;;;;;;;;10438472;28;20769;-91
2022/04/15 05:35:33;;;;;;;41.95;30.67;;;;;;;;;;10441163;28;20487;-91
2022/04/15 05:40:36;;;;;;;49.30;35.97;;;;;;;;;;10437967;28;20439;-91
2022/04/15 05:45:39;;;;;;;48.28;35.40;;;;;;;;;;10432361;28;20502;-94
2022/04/15 05:50:40;;;;;;;49.30;34.30;;;;;;;;;;10437237;28;20423;-94
2022/04/15 05:55:44;;;;;;;50.37;36.93;;;;;;;;;;10447187;28;20418;-92
2022/04/15 06:00:47;;;;;;;48.33;36.00;;;;;;;;;;10433203;28;20418;-94
2022/04/15 06:05:50;;;;;;;48.97;35.08;;;;;;;;;;10423321;28;20945;-95
2022/04/15 06:10:53;;;;;;;46.70;32.15;;;;;;;;;;10418678;28;20464;-91
2022/04/15 06:15:56;;;;;;;41.53;30.53;;;;;;;;;;10436699;28;20432;-92
2022/04/15 06:21:00;;;;;;;43.30;32.47;;;;;;;;;;10439770;28;20520;-90
2022/04/15 06:26:03;;;;;;;46.45;34.35;;;;;;;;;;10450247;28;20478;-93
2022/04/15 06:31:05;;;;;;;46.13;34.25;;;;;;;;;;10455145;28;20507;-92
2022/04/15 06:36:07;;;;;;;46.67;34.73;;;;;;;;;;10466412;28;20632;-94
2022/04/15 06:41:11;;;;;;;51.78;36.05;;;;;;;;;;10447699;28;20458;-92
2022/04/15 06:46:13;;;;;;;48.03;34.13;;;;;;;;;;10438472;28;20444;-92
2022/04/15 06:51:15;;;;;;;45.93;34.03;;;;;;;;;;10437255;28;20419;-94
2022/04/15 06:56:18;;;;;;;42.50;30.58;;;;;;;;;;10454751;28;20411;-94
2022/04/15 07:01:23;;;;;;;45.63;32.13;;;;;;;;;;10454497;28;20462;-94
2022/04/15 07:06:25;;;;;;;36.30;25.88;;;;;;;;;;10443162;28;20417;-94
2022/04/15 07:11:29;;;;;;;39.10;28.05;;;;;;;;;;10429977;28;20517;-93
2022/04/15 07:16:31;;;;;;;35.08;23.27;;;;;;;;;;10452605;28;20426;-95
2022/04/15 07:21:33;;;;;;;36.23;24.63;;;;;;;;;;10453966;28;20525;-95
2022/04/15 07:26:37;;;;;;;33.95;23.00;;;;;;;;;;10457941;28;20469;-96
2022/04/15 07:31:40;;;;;;;44.35;28.83;;;;;;;;;;10456883;28;20432;-95
2022/04/15 07:36:48;;;;;;;35.47;23.55;;;;;;;;;;10450440;28;20456;-94
2022/04/15 07:41:52;;;;;;;35.53;20.38;;;;;;;;;;10442872;28;20415;-96
2022/04/15 07:46:55;;;;;;;30.07;20.07;;;;;;;;;;10440337;28;20442;-96
2022/04/15 07:51:57;;;;;;;29.80;18.10;;;;;;;;;;10440141;28;20481;-94
2022/04/15 07:57:01;;;;;;;27.13;16.60;;;;;;;;;;10451734;28;20921;-94
2022/04/15 08:02:05;;;;;;;26.10;18.58;;;;;;;;;;10438685;28;20408;-93
2022/04/15 08:07:07;;;;;;;28.40;18.17;;;;;;;;;;10450881;28;20461;-96
2022/04/15 08:12:11;;;;;;;24.03;15.70;;;;;;;;;;10433714;28;20499;-94
2022/04/15 08:17:13;;;;;;;24.65;14.27;;;;;;;;;;10443326;28;20430;-95
2022/04/15 08:22:15;;;;;;;25.88;15.48;;;;;;;;;;10454812;28;21009;-95
2022/04/15 08:27:19;;;;;;;26.20;14.55;;;;;;;;;;10455024;28;20408;-95
2022/04/15 08:32:33;;;;;;;25.52;14.30;;;;;;;;;;10446641;28;20426;-95
2022/04/15 08:37:36;;;;;;;20.27;11.82;;;;;;;;;;10448126;28;20412;-96
2022/04/15 08:42:40;;;;;;;20.88;13.35;;;;;;;;;;10420201;28;20429;-95
2022/04/15 08:47:43;;;;;;;24.83;15.10;;;;;;;;;;10439174;28;20407;-95
2022/04/15 08:52:53;;;;;;;19.10;12.07;;;;;;;;;;10430624;28;20415;-95
2022/04/15 08:58:00;;;;;;;21.13;13.88;;;;;;;;;;10436405;28;20407;-95
2022/04/15 09:03:03;;;;;;;23.27;12.67;;;;;;;;;;10418694;28;20413;-96
2022/04/15 09:08:08;;;;;;;21.73;12.53;;;;;;;;;;10429908;28;20421;-95
2022/04/15 09:13:23;;;;;;;25.05;14.02;;;;;;;;;;10438258;28;20425;-94
2022/04/15 09:18:36;;;;;;;23.73;15.10;;;;;;;;;;10435239;28;20420;-95
2022/04/15 09:23:38;;;;;;;24.77;14.82;;;;;;;;;;10432112;28;20422;-95
2022/04/15 09:28:54;;;;;;;24.93;12.97;;;;;;;;;;10431032;28;20831;-95
2022/04/15 09:33:59;;;;;;;22.20;12.23;;;;;;;;;;10439889;28;20771;-96
2022/04/15 09:39:14;;;;;;;22.55;12.13;;;;;;;;;;10442599;28;20895;-95
2022/04/15 09:44:18;;;;;;;22.10;12.50;;;;;;;;;;10442456;28;20400;-96
2022/04/15 09:49:30;;;;;;;21.92;13.00;;;;;;;;;;10450133;28;20403;-96
2022/04/15 09:54:40;;;;;;;21.40;12.90;;;;;;;;;;10446613;28;20412;-95
2022/04/15 09:59:53;;;;;;;20.43;11.77;;;;;;;;;;10443485;28;20417;-95
2022/04/15 10:04:56;;;;;;;21.75;11.70;;;;;;;;;;10441552;28;20889;-96
2022/04/15 10:09:59;;;;;;;18.95;10.35;;;;;;;;;;10450943;28;20412;-94
2022/04/15 10:15:20;;;;;;;18.73;9.27;;;;;;;;;;10467500;28;20414;-95
2022/04/15 10:21:14;;;;;;;18.80;9.80;;;;;;;;;;10462735;28;20813;-96
2022/04/15 10:26:21;;;;;;;17.25;8.85;;;;;;;;;;10453662;28;20435;-95
2022/04/15 10:31:26;;;;;;;19.38;8.68;;;;;;;;;;10445578;28;20422;-93
2022/04/15 10:36:35;;;;;;;16.23;9.38;;;;;;;;;;10446516;28;20880;-93
2022/04/15 10:41:55;;;;;;;13.23;7.65;;;;;;;;;;10437712;28;20405;-95
2022/04/15 10:47:05;;;;;;;12.65;7.22;;;;;;;;;;10427617;28;20982;-94
2022/04/15 10:52:21;;;;;;;13.02;7.20;;;;;;;;;;10430515;28;20522;-94
2022/04/15 10:57:23;;;;;;;11.55;7.20;;;;;;;;;;10449826;28;21175;-94
2022/04/15 11:02:38;;;;;;;11.57;6.82;;;;;;;;;;10439045;28;20443;-94
2022/04/15 11:07:51;;;;;;;12.33;7.27;;;;;;;;;;10450175;28;20497;-95
2022/04/15 11:12:54;;;;;;;10.77;6.65;;;;;;;;;;10463627;28;20399;-93
2022/04/15 11:17:58;;;;;;;10.85;6.65;;;;;;;;;;10486750;28;20415;-94
2022/04/15 11:23:01;;;;;;;11.47;6.97;;;;;;;;;;10438080;28;20931;-94
2022/04/15 11:28:05;;;;;;;15.27;6.43;;;;;;;;;;10444080;28;20510;-90
2022/04/15 11:33:09;;;;;;;11.07;6.20;;;;;;;;;;10441648;28;20464;-90
2022/04/15 11:38:12;;;;;;;10.48;6.20;;;;;;;;;;10445559;28;20481;-92
2022/04/15 11:43:14;;;;;;;9.70;5.53;;;;;;;;;;10434556;28;20417;-96
2022/04/15 11:48:22;;;;;;;9.67;5.83;;;;;;;;;;10449702;28;20477;-96
2022/04/15 11:53:24;;;;;;;10.23;5.72;;;;;;;;;;10446212;28;20477;-95
2022/04/15 11:58:33;;;;;;;9.40;4.72;;;;;;;;;;10449318;28;20428;-95
2022/04/15 12:03:41;;;;;;;7.95;4.55;;;;;;;;;;10434977;28;20442;-95
2022/04/15 12:08:43;;;;;;;8.00;4.70;;;;;;;;;;10446636;28;20411;-95
2022/04/15 12:13:45;;;;;;;7.05;4.47;;;;;;;;;;10450864;28;20447;-94
2022/04/15 12:18:50;;;;;;;9.70;4.67;;;;;;;;;;10424352;28;21466;-95
2022/04/15 12:24:05;;;;;;;7.05;4.45;;;;;;;;;;10418614;28;20409;-95
2022/04/15 12:34:34;;;;;;;6.53;4.90;;;;;;;;;;10432404;28;20399;-91
2022/04/15 12:39:52;;;;;;;6.75;4.43;;;;;;;;;;10432450;28;20485;-92
2022/04/15 12:44:56;;;;;;;5.97;5.15;;;;;;;;;;10402347;28;23420;-91
2022/04/15 12:50:25;;;;;;;7.40;6.38;;;;;;;;;;10444150;28;20474;-92
2022/04/15 12:55:28;;;;;;;7.90;5.82;;;;;;;;;;10429152;28;20420;-93
2022/04/15 13:00:31;;;;;;;7.25;5.85;;;;;;;;;;10430799;28;20411;-92
2022/04/15 13:05:36;;;;;;;5.88;4.95;;;;;;;;;;10434862;28;20431;-93
2022/04/15 13:10:38;;;;;;;7.47;5.18;;;;;;;;;;10427875;28;20409;-92
2022/04/15 13:15:40;;;;;;;7.05;5.45;;;;;;;;;;10432248;28;20407;-94
2022/04/15 13:20:47;;;;;;;5.57;4.68;;;;;;;;;;10439144;28;20420;-93
2022/04/15 13:25:52;;;;;;;7.78;5.72;;;;;;;;;;10441460;28;20403;-92
2022/04/15 13:30:54;;;;;;;7.00;5.73;;;;;;;;;;10425022;28;20487;-94
2022/04/15 13:35:57;;;;;;;5.68;5.07;;;;;;;;;;10434373;28;20895;-94
2022/04/15 13:40:59;;;;;;;7.90;5.90;;;;;;;;;;10447072;28;20506;-95
2022/04/15 13:46:02;;;;;;;9.53;6.67;;;;;;;;;;10456682;28;20403;-96
2022/04/15 13:51:06;;;;;;;7.03;6.00;;;;;;;;;;10452508;28;20896;-96
2022/04/15 14:01:30;;;;;;;6.28;5.20;;;;;;;;;;10421531;28;20397;-96
2022/04/15 14:06:33;;;;;;;6.70;5.32;;;;;;;;;;10429036;28;20941;-94
2022/04/15 14:11:36;;;;;;;7.93;4.72;;;;;;;;;;10432253;28;20895;-95
2022/04/15 14:16:38;;;;;;;7.25;5.22;;;;;;;;;;10434210;28;20440;-96
2022/04/15 14:21:42;;;;;;;6.85;5.30;;;;;;;;;;10446077;28;20415;-95
2022/04/15 14:26:46;;;;;;;6.53;5.05;;;;;;;;;;10440908;28;20471;-96
2022/04/15 14:31:49;;;;;;;7.43;5.35;;;;;;;;;;10446840;28;20911;-96
2022/04/15 14:36:52;;;;;;;6.93;5.20;;;;;;;;;;10447167;28;20503;-96
2022/04/15 14:41:54;;;;;;;5.50;4.90;;;;;;;;;;10448892;28;20419;-96
2022/04/15 14:46:56;;;;;;;10.63;5.57;;;;;;;;;;10445472;28;20868;-90
2022/04/15 14:52:01;;;;;;;6.63;5.10;;;;;;;;;;10444811;28;20424;-96
2022/04/15 14:57:06;;;;;;;8.00;5.22;;;;;;;;;;10447866;28;20403;-95
2022/04/15 15:02:09;;;;;;;6.97;4.70;;;;;;;;;;10457392;28;20895;-95
2022/04/15 15:07:14;;;;;;;8.63;5.07;;;;;;;;;;10449396;28;20824;-95
2022/04/15 15:12:18;;;;;;;8.25;5.05;;;;;;;;;;10446927;28;20408;-96
2022/04/15 15:17:22;;;;;;;6.30;5.07;;;;;;;;;;10461781;28;20408;-95
2022/04/15 15:22:29;;;;;;;7.23;5.10;;;;;;;;;;10447065;28;20411;-96
2022/04/15 15:32:59;;;;;;;4.85;3.75;;;;;;;;;;10384236;28;20431;-96
2022/04/15 15:38:07;;;;;;;5.33;3.13;;;;;;;;;;10445029;28;20427;-96
2022/04/15 15:43:10;;;;;;;4.70;2.75;;;;;;;;;;10468430;28;20506;-95
2022/04/15 15:48:12;;;;;;;6.17;3.20;;;;;;;;;;10448894;28;20407;-90
2022/04/15 15:53:16;;;;;;;4.15;3.20;;;;;;;;;;10433591;28;20420;-91
2022/04/15 15:58:19;;;;;;;5.28;3.05;;;;;;;;;;10440218;28;20783;-94
2022/04/15 16:03:22;;;;;;;3.33;3.00;;;;;;;;;;10444274;28;20819;-94
2022/04/15 16:08:26;;;;;;;4.30;3.07;;;;;;;;;;10444561;28;20461;-94
2022/04/15 16:13:28;;;;;;;4.10;2.97;;;;;;;;;;10419834;28;20421;-95
2022/04/15 16:18:30;;;;;;;4.43;3.33;;;;;;;;;;10454719;28;20850;-95
2022/04/15 16:23:34;;;;;;;5.93;3.78;;;;;;;;;;10445651;28;20450;-93
2022/04/15 16:28:36;;;;;;;3.83;3.10;;;;;;;;;;10448592;28;20416;-93
2022/04/15 16:33:38;;;;;;;3.30;3.00;;;;;;;;;;10449264;28;20858;-93
2022/04/15 16:38:41;;;;;;;6.25;3.13;;;;;;;;;;10447991;28;20455;-93
2022/04/15 16:43:43;;;;;;;4.80;2.90;;;;;;;;;;10442609;28;20828;-94
2022/04/15 16:48:45;;;;;;;4.00;2.23;;;;;;;;;;10438106;28;20426;-94
2022/04/15 16:53:49;;;;;;;4.88;2.55;;;;;;;;;;10432961;28;20469;-94
2022/04/15 16:58:52;;;;;;;4.50;2.87;;;;;;;;;;10439985;28;20442;-94
2022/04/15 17:03:54;;;;;;;5.68;3.00;;;;;;;;;;10440739;28;20468;-94
2022/04/15 17:08:58;;;;;;;4.60;3.40;;;;;;;;;;10434387;28;20452;-92
2022/04/15 17:14:00;;;;;;;4.45;2.70;;;;;;;;;;10422661;28;20431;-92
2022/04/15 17:19:02;;;;;;;5.30;2.80;;;;;;;;;;10419550;28;20437;-91
2022/04/15 17:24:06;;;;;;;4.82;2.80;;;;;;;;;;10431108;28;20431;-91
2022/04/15 17:29:08;;;;;;;4.85;2.80;;;;;;;;;;10463318;28;20439;-92
2022/04/15 17:34:11;;;;;;;5.38;3.80;;;;;;;;;;10425976;28;21024;-92
2022/04/15 17:39:15;;;;;;;9.90;7.20;;;;;;;;;;10421866;28;20992;-91
2022/04/15 17:44:18;;;;;;;11.48;6.60;;;;;;;;;;10425141;28;20439;-92
2022/04/15 17:49:20;;;;;;;11.67;7.33;;;;;;;;;;10422124;28;20503;-91
2022/04/15 17:54:24;;;;;;;9.00;5.60;;;;;;;;;;10428256;28;20584;-92
2022/04/15 17:59:25;;;;;;;7.05;4.47;;;;;;;;;;10425843;28;20923;-92
2022/04/15 18:04:29;;;;;;;7.93;4.57;;;;;;;;;;10419953;28;20447;-91
2022/04/15 18:09:32;;;;;;;6.90;3.90;;;;;;;;;;10430302;28;20545;-92
2022/04/15 18:14:34;;;;;;;7.72;3.60;;;;;;;;;;10429606;28;20516;-92
2022/04/15 18:19:36;;;;;;;6.77;3.60;;;;;;;;;;10409165;28;20516;-92
2022/04/15 18:24:39;;;;;;;5.15;3.58;;;;;;;;;;10417396;28;20449;-92
2022/04/15 18:29:41;;;;;;;7.18;4.10;;;;;;;;;;10428677;28;20866;-91
2022/04/15 18:34:44;;;;;;;7.85;4.50;;;;;;;;;;10430014;28;20523;-91
2022/04/15 18:39:49;;;;;;;6.38;4.88;;;;;;;;;;10422079;28;20465;-92
2022/04/15 18:44:52;;;;;;;8.40;4.95;;;;;;;;;;10424053;28;20986;-91
2022/04/15 18:55:19;;;;;;;6.50;4.85;;;;;;;;;;10417515;28;20412;-92
2022/04/15 19:00:21;;;;;;;7.07;5.15;;;;;;;;;;10423782;28;20913;-92
2022/04/15 19:05:27;;;;;;;7.90;5.80;;;;;;;;;;10425525;28;20837;-91
2022/04/15 19:10:32;;;;;;;7.43;5.10;;;;;;;;;;10432281;28;20423;-91
2022/04/15 19:15:34;;;;;;;8.10;5.60;;;;;;;;;;10433975;28;20419;-91
2022/04/15 19:20:36;;;;;;;7.70;5.75;;;;;;;;;;10425977;28;20423;-91
2022/04/15 19:25:40;;;;;;;10.00;6.00;;;;;;;;;;10427816;28;20513;-91
2022/04/15 19:30:43;;;;;;;10.05;6.40;;;;;;;;;;10441153;28;20506;-90
2022/04/15 19:35:46;;;;;;;10.93;6.77;;;;;;;;;;10426712;28;20937;-92
2022/04/15 19:40:50;;;;;;;8.48;6.05;;;;;;;;;;10433042;28;20700;-92
2022/04/15 19:45:52;;;;;;;9.37;6.17;;;;;;;;;;10428227;28;20498;-91
2022/04/15 19:50:54;;;;;;;9.95;6.45;;;;;;;;;;10420031;28;20428;-91
2022/04/15 20:01:18;;;;;;;12.98;7.68;;;;;;;;;;10423172;28;20398;-92
2022/04/15 20:06:20;;;;;;;15.40;8.00;;;;;;;;;;10421890;28;20493;-91
2022/04/15 20:11:24;;;;;;;11.50;7.93;;;;;;;;;;10404934;28;20409;-91
2022/04/15 20:16:26;;;;;;;12.53;8.13;;;;;;;;;;10431881;28;20422;-92
2022/04/15 20:21:29;;;;;;;14.77;11.20;;;;;;;;;;10422070;28;20510;-91
2022/04/15 20:26:33;;;;;;;13.40;10.73;;;;;;;;;;10422624;28;21070;-91
2022/04/15 20:31:35;;;;;;;15.93;11.25;;;;;;;;;;10399402;28;20411;-91
2022/04/15 20:36:38;;;;;;;16.58;12.27;;;;;;;;;;10422295;28;20421;-93
2022/04/15 20:41:41;;;;;;;15.82;11.35;;;;;;;;;;10418667;28;20512;-91
2022/04/15 20:46:43;;;;;;;19.70;12.68;;;;;;;;;;10417204;28;20834;-92
2022/04/15 20:51:45;;;;;;;14.10;11.63;;;;;;;;;;10412492;28;20405;-91
2022/04/15 20:56:49;;;;;;;15.00;12.47;;;;;;;;;;10412902;28;20411;-92
2022/04/15 21:01:51;;;;;;;13.40;11.52;;;;;;;;;;10415463;28;20483;-91
2022/04/15 21:06:53;;;;;;;13.98;10.85;;;;;;;;;;10414744;28;20417;-91
2022/04/15 21:11:57;;;;;;;15.18;10.35;;;;;;;;;;10419218;28;20509;-92
2022/04/15 21:17:00;;;;;;;13.13;10.85;;;;;;;;;;10435105;28;20466;-90
2022/04/15 21:22:02;;;;;;;14.20;10.10;;;;;;;;;;10446516;28;20415;-92
2022/04/15 21:27:06;;;;;;;16.00;10.50;;;;;;;;;;10450877;28;20510;-91
2022/04/15 21:32:08;;;;;;;15.60;11.17;;;;;;;;;;10471077;28;20408;-92
2022/04/15 21:37:10;;;;;;;15.43;10.88;;;;;;;;;;10445927;28;20506;-91
2022/04/15 21:42:14;;;;;;;15.73;11.82;;;;;;;;;;10411541;28;20405;-90
2022/04/15 21:47:16;;;;;;;16.92;11.55;;;;;;;;;;10434296;28;20429;-90
2022/04/15 21:52:34;;;;;;;15.00;11.82;;;;;;;;;;10441521;28;20419;-90
2022/04/15 21:57:38;;;;;;;16.50;12.57;;;;;;;;;;10444389;28;20419;-91
2022/04/15 22:02:40;;;;;;;14.73;12.27;;;;;;;;;;10441920;28;20410;-89
2022/04/15 22:07:42;;;;;;;13.73;12.02;;;;;;;;;;10446577;28;20407;-91
2022/04/15 22:12:45;;;;;;;16.63;12.45;;;;;;;;;;10446137;28;20425;-92
2022/04/15 22:17:47;;;;;;;16.35;13.52;;;;;;;;;;10446234;28;20468;-91
2022/04/15 22:22:49;;;;;;;17.30;14.10;;;;;;;;;;10446818;28;20911;-92
2022/04/15 22:27:52;;;;;;;17.02;14.80;;;;;;;;;;10446729;28;20404;-89
2022/04/15 22:32:54;;;;;;;19.67;15.33;;;;;;;;;;10447188;28;20459;-90
2022/04/15 22:37:56;;;;;;;19.98;15.32;;;;;;;;;;10445488;28;20415;-91
2022/04/15 22:43:00;;;;;;;22.10;16.70;;;;;;;;;;10447050;28;20411;-90
2022/04/15 22:48:15;;;;;;;18.13;16.23;;;;;;;;;;10445925;28;20756;-91
2022/04/15 22:53:20;;;;;;;21.10;17.08;;;;;;;;;;10442310;28;20426;-90
2022/04/15 22:58:24;;;;;;;22.63;17.27;;;;;;;;;;10444522;28;20468;-92
2022/04/15 23:03:26;;;;;;;22.48;17.95;;;;;;;;;;10445649;28;20495;-91
2022/04/15 23:08:28;;;;;;;22.60;18.08;;;;;;;;;;10446204;28;20411;-90
2022/04/15 23:13:32;;;;;;;21.43;17.53;;;;;;;;;;10445452;28;20418;-91
2022/04/15 23:18:34;;;;;;;21.13;18.00;;;;;;;;;;10445260;28;20407;-92
2022/04/15 23:23:36;;;;;;;21.10;17.87;;;;;;;;;;10445339;28;20435;-90
2022/04/15 23:28:39;;;;;;;21.48;17.30;;;;;;;;;;10444154;28;20455;-90
2022/04/15 23:33:41;;;;;;;23.15;17.95;;;;;;;;;;10440276;28;20473;-92
2022/04/15 23:38:45;;;;;;;20.77;17.48;;;;;;;;;;10443517;28;20408;-91
2022/04/15 23:43:48;;;;;;;22.47;17.23;;;;;;;;;;10446208;28;20400;-91
2022/04/15 23:48:50;;;;;;;19.87;16.67;;;;;;;;;;10444426;28;20431;-91
2022/04/15 23:53:52;;;;;;;19.95;17.00;;;;;;;;;;10444463;28;20866;-91
2022/04/15 23:58:55;;;;;;;20.47;17.47;;;;;;;;;;10445091;28;20408;-90
